createdAt,value
2022-10-15T00:03:08.303Z,98493.41
2022-10-15T00:09:10.203Z,98483.34
2022-10-15T00:15:12.618Z,98489.56
2022-10-15T00:21:18.038Z,98492.25
2022-10-15T00:27:20.038Z,98481.56
2022-10-15T00:33:22.965Z,98470.03
2022-10-15T00:39:24.992Z,98479.66
2022-10-15T00:45:27.064Z,98483.19
2022-10-15T00:51:36.938Z,98479.44
2022-10-15T00:57:45.672Z,98476.06
2022-10-15T01:03:47.820Z,98469.47
2022-10-15T01:09:50.838Z,98454.81
2022-10-15T01:16:20.699Z,98448.63
2022-10-15T01:22:33.173Z,98437.31
2022-10-15T01:28:43.394Z,98428.31
2022-10-15T01:35:00.764Z,98437.25
2022-10-15T01:47:32.694Z,98431.91
2022-10-15T01:53:36.804Z,98423.25
2022-10-15T01:59:39.040Z,98427.34
2022-10-15T02:06:20.368Z,98416.97
2022-10-15T02:12:38.608Z,98419.81
2022-10-15T02:19:09.151Z,98415.25
2022-10-15T02:25:20.996Z,98425.81
2022-10-15T02:31:26.012Z,98410.19
2022-10-15T02:37:29.399Z,98402.16
2022-10-15T02:43:31.393Z,98392.69
2022-10-15T02:49:33.301Z,98388.59
2022-10-15T02:55:35.301Z,98388.59
2022-10-15T03:01:37.185Z,98391.31
2022-10-15T03:07:39.109Z,98387.31
2022-10-15T03:13:41.582Z,98390.75
2022-10-15T03:19:43.700Z,98383.41
2022-10-15T03:25:45.559Z,98383.22
2022-10-15T03:31:47.566Z,98380.94
2022-10-15T03:37:49.426Z,98382.66
2022-10-15T03:43:51.322Z,98395.41
2022-10-15T03:56:18.752Z,98395.56
2022-10-15T04:02:31.629Z,98404.16
2022-10-15T04:09:04.470Z,98404.50
2022-10-15T04:15:07.335Z,98411.25
2022-10-15T04:21:11.591Z,98402.59
2022-10-15T04:27:26.736Z,98408.56
2022-10-15T04:33:32.137Z,98405.03
2022-10-15T04:39:34.125Z,98405.03
2022-10-15T04:45:35.983Z,98402.69
2022-10-15T04:51:37.911Z,98405.94
2022-10-15T04:57:39.774Z,98404.22
2022-10-15T05:03:45.159Z,98410.91
2022-10-15T05:09:52.889Z,98417.72
2022-10-15T05:15:55.386Z,98421.16
2022-10-15T05:21:57.547Z,98416.31
2022-10-15T05:28:00.517Z,98403.09
2022-10-15T05:34:15.551Z,98405.13
2022-10-15T05:40:21.089Z,98411.72
2022-10-15T05:46:24.762Z,98422.53
2022-10-15T05:58:46.173Z,98426.94
2022-10-15T06:04:49.379Z,98447.72
2022-10-15T06:10:51.572Z,98456.63
2022-10-15T06:23:19.836Z,98457.59
2022-10-15T06:29:21.798Z,98443.78
2022-10-15T06:35:25.238Z,98453.69
2022-10-15T06:41:52.412Z,98457.69
2022-10-15T06:47:54.356Z,98463.34
2022-10-15T06:53:56.257Z,98470.59
2022-10-15T06:59:58.945Z,98485.31
2022-10-15T07:06:51.091Z,98490.31
2022-10-15T07:12:54.946Z,98497.50
2022-10-15T07:18:59.759Z,98510.06
2022-10-15T07:25:45.048Z,98507.28
2022-10-15T07:31:50.190Z,98503.25
2022-10-15T07:38:02.239Z,98516.06
2022-10-15T07:44:44.909Z,98521.00
2022-10-15T07:50:46.806Z,98528.75
2022-10-15T07:56:49.099Z,98532.09
2022-10-15T08:02:51.012Z,98527.59
2022-10-15T08:08:53.364Z,98544.81
2022-10-15T08:14:55.345Z,98556.31
2022-10-15T08:21:00.864Z,98556.38
2022-10-15T08:27:04.947Z,98567.19
2022-10-15T08:33:06.804Z,98569.63
2022-10-15T08:39:10.328Z,98556.72
2022-10-15T08:45:42.321Z,98550.38
2022-10-15T08:58:38.223Z,98546.53
2022-10-15T09:04:54.545Z,98550.41
2022-10-15T09:11:22.533Z,98555.88
2022-10-15T09:17:28.411Z,98553.25
2022-10-15T09:23:33.689Z,98549.59
2022-10-15T09:30:10.314Z,98536.34
2022-10-15T09:36:31.598Z,98556.03
2022-10-15T09:43:48.995Z,98553.81
2022-10-15T09:49:52.530Z,98548.09
2022-10-15T09:56:15.182Z,98557.66
2022-10-15T10:02:24.153Z,98568.00
2022-10-15T10:08:29.666Z,98563.59
2022-10-15T10:14:36.863Z,98567.09
2022-10-15T10:21:01.477Z,98562.50
2022-10-15T10:27:17.571Z,98568.00
2022-10-15T10:33:33.171Z,98570.34
2022-10-15T10:39:39.215Z,98568.50
2022-10-15T10:46:01.435Z,98561.69
2022-10-15T10:52:04.440Z,98562.84
2022-10-15T10:58:15.139Z,98562.31
2022-10-15T11:04:25.981Z,98552.47
2022-10-15T11:10:54.349Z,98559.78
2022-10-15T11:17:00.026Z,98559.06
2022-10-15T11:23:28.077Z,98539.19
2022-10-15T11:29:39.041Z,98557.66
2022-10-15T11:43:17.523Z,98537.84
2022-10-15T11:49:43.656Z,98534.06
2022-10-15T11:56:13.192Z,98528.09
2022-10-15T12:02:39.335Z,98521.31
2022-10-15T12:08:42.680Z,98517.94
2022-10-15T12:15:40.706Z,98507.94
2022-10-15T12:22:09.585Z,98505.41
2022-10-15T12:28:27.097Z,98507.63
2022-10-15T12:34:41.110Z,98495.69
2022-10-15T12:40:43.329Z,98499.47
2022-10-15T12:46:45.691Z,98501.00
2022-10-15T12:53:25.367Z,98491.13
2022-10-15T13:07:26.805Z,98497.44
2022-10-15T13:13:30.191Z,98491.44
2022-10-15T13:20:09.068Z,98477.13
2022-10-15T13:26:27.311Z,98481.34
2022-10-15T13:32:38.755Z,98483.34
2022-10-15T13:38:43.994Z,98469.59
2022-10-15T13:45:03.221Z,98467.44
2022-10-15T13:51:06.244Z,98443.53
2022-10-15T13:57:18.087Z,98456.31
2022-10-15T14:03:27.194Z,98453.03
2022-10-15T14:09:37.053Z,98446.84
2022-10-15T14:15:45.032Z,98455.97
2022-10-15T14:21:48.695Z,98464.72
2022-10-15T14:27:50.926Z,98452.00
2022-10-15T14:33:52.922Z,98460.94
2022-10-15T14:40:09.747Z,98464.50
2022-10-15T14:46:18.917Z,98455.84
2022-10-15T14:52:22.856Z,98458.28
2022-10-15T14:58:28.139Z,98454.75
2022-10-15T15:04:40.967Z,98456.38
2022-10-15T15:10:44.594Z,98460.47
2022-10-15T15:16:46.510Z,98461.28
2022-10-15T15:22:50.872Z,98458.56
2022-10-15T15:28:53.005Z,98453.41
2022-10-15T15:34:57.103Z,98458.81
2022-10-15T15:41:24.881Z,98451.22
2022-10-15T15:47:27.607Z,98452.59
2022-10-15T15:53:30.029Z,98465.06
2022-10-15T15:59:31.993Z,98455.56
2022-10-15T16:06:06.492Z,98470.44
2022-10-15T16:12:08.585Z,98462.28
2022-10-15T16:18:12.086Z,98471.31
2022-10-15T16:24:14.055Z,98473.63
2022-10-15T16:30:16.436Z,98471.00
2022-10-15T16:36:18.648Z,98474.50
2022-10-15T16:42:20.689Z,98483.53
2022-10-15T16:48:22.941Z,98496.88
2022-10-15T16:54:27.705Z,98503.94
2022-10-15T17:00:48.694Z,98520.59
2022-10-15T17:13:09.883Z,98515.34
2022-10-15T17:19:14.608Z,98509.88
2022-10-15T17:25:22.087Z,98527.13
2022-10-15T17:31:26.952Z,98539.34
2022-10-15T17:44:19.200Z,98550.94
2022-10-15T17:50:22.564Z,98563.34
2022-10-15T17:56:28.500Z,98562.38
2022-10-15T18:10:12.649Z,98549.41
2022-10-15T18:16:14.821Z,98556.47
2022-10-15T18:22:16.791Z,98559.75
2022-10-15T18:28:19.551Z,98577.91
2022-10-15T18:34:21.533Z,98580.84
2022-10-15T18:40:23.409Z,98599.16
2022-10-15T18:46:27.544Z,98595.44
2022-10-15T18:52:39.421Z,98611.44
2022-10-15T18:59:07.615Z,98613.84
2022-10-15T19:12:55.967Z,98597.19
2022-10-15T19:18:58.378Z,98606.19
2022-10-15T19:25:00.423Z,98614.44
2022-10-15T19:37:19.889Z,98629.44
2022-10-15T19:43:23.552Z,98633.63
2022-10-15T19:49:25.835Z,98642.38
2022-10-15T20:02:54.106Z,98652.69
2022-10-15T20:08:56.166Z,98655.16
2022-10-15T20:14:58.199Z,98650.31
2022-10-15T20:21:00.205Z,98629.09
2022-10-15T20:27:02.144Z,98658.16
2022-10-15T20:33:04.836Z,98677.47
2022-10-15T20:39:07.357Z,98722.69
2022-10-15T20:45:14.342Z,98745.91
2022-10-15T20:51:18.810Z,98757.81
2022-10-15T20:57:20.742Z,98761.59
2022-10-15T21:03:22.786Z,98746.09
2022-10-15T21:09:25.059Z,98746.22
2022-10-15T21:15:27.417Z,98762.94
2022-10-15T21:21:29.552Z,98778.75
2022-10-15T21:27:31.467Z,98786.09
2022-10-15T21:33:34.086Z,98784.50
2022-10-15T21:39:36.038Z,98790.88
2022-10-15T21:45:37.923Z,98802.84
2022-10-15T21:51:40.745Z,98800.31
2022-10-15T21:57:42.637Z,98812.78
2022-10-15T22:03:45.794Z,98820.28
2022-10-15T22:09:48.124Z,98811.47
2022-10-15T22:15:50.124Z,98832.94
2022-10-15T22:21:52.168Z,98839.16
2022-10-15T22:27:57.232Z,98820.75
2022-10-15T22:33:59.909Z,98817.81
2022-10-15T22:40:03.380Z,98835.22
2022-10-15T22:53:46.670Z,98843.63
2022-10-15T22:59:48.553Z,98852.28
2022-10-15T23:05:55.044Z,98843.25
2022-10-15T23:11:57.042Z,98840.81
2022-10-15T23:17:59.250Z,98845.63
2022-10-15T23:24:02.169Z,98842.94
2022-10-15T23:30:14.383Z,98845.88
2022-10-15T23:36:25.007Z,98830.84
2022-10-15T23:42:26.944Z,98841.00
2022-10-15T23:48:29.145Z,98854.38
2022-10-15T23:54:31.643Z,98836.78
